Time;durP1;ratioP1;P1;durP2;ratioP2;P2;SDS_P1;SDS_P2;PMS_P1;PMS_P2;Temp;Humidity;BMP_temperature;BMP_pressure;BME280_temperature;BME280_humidity;BME280_pressure;Samples;Min_cycle;Max_cycle;Signal;HPM_P1;HPM_P2
2023/01/27 00:01:14;;;;;;;8.07;2.70;;;4.70;99.90;;;;;;5012905;28;20108;-86
2023/01/27 00:03:47;;;;;;;9.10;2.97;;;4.70;99.90;;;;;;5017985;28;20034;-85
2023/01/27 00:06:14;;;;;;;8.18;2.72;;;4.70;99.90;;;;;;5012696;28;20037;-86
2023/01/27 00:08:41;;;;;;;8.60;2.78;;;4.70;99.90;;;;;;5015280;28;20041;-87
2023/01/27 00:13:55;;;;;;;7.63;2.90;;;4.60;99.90;;;;;;5017851;28;20063;-86
2023/01/27 00:16:20;;;;;;;10.13;3.13;;;4.60;99.90;;;;;;5025360;28;20111;-87
2023/01/27 00:18:47;;;;;;;9.63;3.33;;;4.70;99.90;;;;;;5023737;28;20482;-86
2023/01/27 00:26:44;;;;;;;9.30;3.13;;;4.60;99.90;;;;;;5014291;28;20033;-86
2023/01/27 00:29:11;;;;;;;8.63;3.35;;;4.60;99.90;;;;;;5014120;28;20057;-87
2023/01/27 00:34:21;;;;;;;9.02;2.47;;;4.60;99.90;;;;;;5019647;28;20099;-87
2023/01/27 00:36:47;;;;;;;9.63;3.00;;;4.60;99.90;;;;;;5002974;28;20437;-87
2023/01/27 00:39:12;;;;;;;7.68;2.88;;;4.50;99.90;;;;;;5015640;28;20036;-86
2023/01/27 00:41:42;;;;;;;7.53;3.00;;;4.60;99.90;;;;;;5023877;28;20038;-87
2023/01/27 00:44:11;;;;;;;11.10;3.70;;;4.60;99.90;;;;;;5023842;28;20025;-86
2023/01/27 00:46:39;;;;;;;12.18;3.30;;;4.60;99.90;;;;;;5002192;28;20124;-87
2023/01/27 00:49:05;;;;;;;11.45;3.17;;;4.50;99.90;;;;;;5020469;28;20041;-86
2023/01/27 00:51:32;;;;;;;9.75;3.35;;;4.50;99.90;;;;;;5023320;28;20488;-87
2023/01/27 00:53:58;;;;;;;8.43;3.03;;;4.50;99.90;;;;;;5022536;28;20034;-86
2023/01/27 00:56:27;;;;;;;9.43;3.22;;;4.50;99.90;;;;;;5019258;28;20030;-84
2023/01/27 00:59:12;;;;;;;7.22;2.88;;;4.50;99.90;;;;;;5023009;28;20061;-85
2023/01/27 01:01:41;;;;;;;8.73;2.88;;;4.60;99.90;;;;;;5001039;28;20505;-84
2023/01/27 01:04:06;;;;;;;7.80;3.60;;;4.50;99.90;;;;;;5023378;28;20073;-85
2023/01/27 01:06:32;;;;;;;11.38;3.72;;;4.50;99.90;;;;;;5018476;28;20030;-85
2023/01/27 01:09:01;;;;;;;9.43;4.03;;;4.50;99.90;;;;;;5022757;28;20105;-85
2023/01/27 01:11:27;;;;;;;10.98;4.55;;;4.50;99.90;;;;;;5023178;28;20540;-85
2023/01/27 01:13:56;;;;;;;9.73;4.05;;;4.50;99.90;;;;;;5021536;28;20026;-86
2023/01/27 01:16:28;;;;;;;9.40;4.18;;;4.40;99.90;;;;;;5019234;28;20129;-88
2023/01/27 01:18:56;;;;;;;8.60;3.70;;;4.40;99.90;;;;;;5010194;28;20093;-86
2023/01/27 01:21:22;;;;;;;6.20;3.15;;;4.40;99.90;;;;;;5008563;28;20064;-89
2023/01/27 01:23:48;;;;;;;13.98;4.90;;;4.40;99.90;;;;;;5029715;28;20049;-87
2023/01/27 01:26:17;;;;;;;9.75;4.55;;;4.40;99.90;;;;;;5026525;28;20034;-86
2023/01/27 01:28:45;;;;;;;9.18;4.10;;;4.40;99.90;;;;;;5015222;28;20116;-87
2023/01/27 01:31:16;;;;;;;14.55;4.97;;;4.40;99.90;;;;;;5028761;28;20045;-87
2023/01/27 01:33:43;;;;;;;11.10;5.18;;;4.40;99.90;;;;;;5013267;28;20049;-87
2023/01/27 01:36:19;;;;;;;10.15;4.65;;;4.40;99.90;;;;;;5010946;28;20034;-85
2023/01/27 01:38:48;;;;;;;9.60;4.60;;;4.40;99.90;;;;;;5019367;28;20129;-86
2023/01/27 01:41:19;;;;;;;11.93;4.40;;;4.40;99.90;;;;;;5011694;28;20042;-89
2023/01/27 01:43:48;;;;;;;13.07;5.40;;;4.40;99.90;;;;;;5011865;28;20030;-86
2023/01/27 01:46:14;;;;;;;12.93;6.00;;;4.40;99.90;;;;;;4996508;28;20041;-86
2023/01/27 01:48:50;;;;;;;9.35;5.60;;;4.30;99.90;;;;;;5012405;28;20022;-86
2023/01/27 01:51:40;;;;;;;9.00;5.43;;;4.30;99.90;;;;;;5007941;28;20037;-86
2023/01/27 01:54:25;;;;;;;15.05;6.60;;;4.30;99.90;;;;;;5005949;28;20127;-85
2023/01/27 01:56:58;;;;;;;11.45;5.72;;;4.30;99.90;;;;;;5025141;28;20034;-86
2023/01/27 01:59:45;;;;;;;14.57;5.45;;;4.40;99.90;;;;;;5009941;28;20034;-86
2023/01/27 02:02:17;;;;;;;12.30;5.78;;;4.30;99.90;;;;;;5012888;28;20089;-85
2023/01/27 02:04:48;;;;;;;10.68;5.47;;;4.30;99.90;;;;;;5013844;28;20109;-86
2023/01/27 02:07:42;;;;;;;11.70;6.05;;;4.30;99.90;;;;;;5010253;28;20038;-86
2023/01/27 02:10:11;;;;;;;12.32;4.70;;;4.40;99.90;;;;;;5015536;28;20505;-87
2023/01/27 02:12:37;;;;;;;10.10;4.72;;;4.30;99.90;;;;;;4999649;28;20068;-85
2023/01/27 02:15:06;;;;;;;9.30;4.88;;;4.40;99.90;;;;;;5018636;28;20034;-86
2023/01/27 02:17:36;;;;;;;12.80;5.40;;;4.40;99.90;;;;;;4998680;28;20112;-86
2023/01/27 02:20:27;;;;;;;9.02;4.85;;;4.40;99.90;;;;;;4999579;28;20042;-86
2023/01/27 02:23:11;;;;;;;9.32;4.78;;;4.40;99.90;;;;;;5016538;28;20045;-86
2023/01/27 02:25:58;;;;;;;11.50;5.97;;;4.40;99.90;;;;;;5015092;28;20037;-85
2023/01/27 02:28:29;;;;;;;15.82;6.85;;;4.40;99.90;;;;;;5016418;28;20030;-87
2023/01/27 02:30:54;;;;;;;17.40;7.00;;;4.40;99.90;;;;;;5015014;28;20044;-85
2023/01/27 02:33:22;;;;;;;13.55;6.40;;;4.30;99.90;;;;;;5014429;28;20030;-86
2023/01/27 02:36:02;;;;;;;17.33;8.55;;;4.40;99.90;;;;;;5014651;28;20038;-85
2023/01/27 02:38:33;;;;;;;15.65;6.90;;;4.40;99.90;;;;;;5014996;28;20026;-86
2023/01/27 02:41:10;;;;;;;17.20;8.35;;;4.40;99.90;;;;;;5014766;28;20045;-86
2023/01/27 02:43:37;;;;;;;14.75;7.47;;;4.40;99.90;;;;;;4996843;28;20046;-87
2023/01/27 02:46:03;;;;;;;13.07;7.65;;;4.40;99.90;;;;;;5015272;28;20049;-87
2023/01/27 02:48:29;;;;;;;20.33;8.30;;;4.40;99.90;;;;;;5016387;28;20034;-87
2023/01/27 02:50:56;;;;;;;16.17;9.13;;;4.40;99.90;;;;;;5015516;28;20057;-88
2023/01/27 02:53:23;;;;;;;19.60;9.98;;;4.40;99.90;;;;;;5015635;28;20030;-87
2023/01/27 02:55:52;;;;;;;18.60;9.75;;;4.40;99.90;;;;;;5016124;28;20493;-86
2023/01/27 02:58:18;;;;;;;17.38;10.25;;;4.30;99.90;;;;;;5016913;28;20120;-87
2023/01/27 03:00:45;;;;;;;25.77;10.98;;;4.30;99.90;;;;;;4998282;28;20478;-87
2023/01/27 03:03:12;;;;;;;19.42;11.23;;;4.30;99.90;;;;;;5015369;28;20038;-86
2023/01/27 03:05:40;;;;;;;19.60;11.15;;;4.30;99.90;;;;;;5015186;28;20167;-87
2023/01/27 03:08:06;;;;;;;18.90;11.65;;;4.30;99.90;;;;;;4998703;28;20049;-86
2023/01/27 03:10:32;;;;;;;19.95;10.23;;;4.30;99.90;;;;;;5014956;28;20558;-86
2023/01/27 03:12:58;;;;;;;18.73;11.10;;;4.30;99.90;;;;;;5014990;28;20116;-86
2023/01/27 03:18:16;;;;;;;22.40;13.43;;;4.30;99.90;;;;;;5015363;28;20053;-88
2023/01/27 03:21:03;;;;;;;23.15;12.88;;;4.20;99.90;;;;;;5015275;28;20033;-88
2023/01/27 03:23:33;;;;;;;22.10;13.50;;;4.30;99.90;;;;;;5013431;28;20042;-87
2023/01/27 03:26:00;;;;;;;23.92;13.80;;;4.20;99.90;;;;;;5013637;28;20057;-87
2023/01/27 03:28:26;;;;;;;27.00;15.32;;;4.20;99.90;;;;;;5014810;28;20130;-87
2023/01/27 03:30:57;;;;;;;19.55;12.63;;;4.20;99.90;;;;;;5014708;28;20449;-87
2023/01/27 03:33:35;;;;;;;22.25;13.50;;;4.20;99.90;;;;;;5015879;28;20037;-87
2023/01/27 03:47:07;;;;;;;17.70;12.00;;;4.20;99.90;;;;;;5016056;28;20037;-86
2023/01/27 03:49:34;;;;;;;15.80;11.40;;;4.20;99.90;;;;;;4998222;28;20129;-87
2023/01/27 03:52:09;;;;;;;17.48;11.85;;;4.20;99.90;;;;;;4997965;28;20037;-86
2023/01/27 03:54:34;;;;;;;17.40;12.05;;;4.30;99.90;;;;;;5015963;28;20136;-87
2023/01/27 03:57:04;;;;;;;15.13;10.55;;;4.30;99.90;;;;;;5016568;28;20030;-86
2023/01/27 03:59:31;;;;;;;14.68;10.27;;;4.30;99.90;;;;;;5013671;28;20034;-86
2023/01/27 04:07:36;;;;;;;14.00;9.45;;;4.30;99.90;;;;;;5014199;28;20049;-87
2023/01/27 04:10:07;;;;;;;15.57;10.00;;;4.30;99.90;;;;;;5013989;28;20034;-87
2023/01/27 04:12:34;;;;;;;15.40;10.52;;;4.30;99.90;;;;;;4997901;28;20426;-87
2023/01/27 04:14:59;;;;;;;14.73;10.00;;;4.30;99.90;;;;;;4997237;28;20394;-86
2023/01/27 04:17:29;;;;;;;15.27;8.95;;;4.30;99.90;;;;;;5015160;28;20393;-87
2023/01/27 04:19:57;;;;;;;14.30;9.55;;;4.30;99.90;;;;;;5013624;28;20456;-85
2023/01/27 04:22:27;;;;;;;11.18;8.20;;;4.30;99.90;;;;;;5013546;28;20038;-86
2023/01/27 04:24:54;;;;;;;12.65;8.38;;;4.30;99.90;;;;;;5013693;28;20048;-86
2023/01/27 04:27:20;;;;;;;11.77;7.85;;;4.30;99.90;;;;;;5013417;28;20044;-87
2023/01/27 04:29:45;;;;;;;10.57;7.53;;;4.30;99.90;;;;;;5013385;28;20034;-87
2023/01/27 04:32:12;;;;;;;9.55;7.07;;;4.40;99.90;;;;;;5012649;28;20034;-86
2023/01/27 04:34:38;;;;;;;11.02;7.10;;;4.40;99.90;;;;;;5013205;28;20033;-86
2023/01/27 04:37:07;;;;;;;11.32;7.07;;;4.40;99.90;;;;;;5014251;28;20469;-85
2023/01/27 04:39:34;;;;;;;10.13;6.80;;;4.40;99.90;;;;;;5013452;28;20038;-86
2023/01/27 04:41:59;;;;;;;11.10;7.45;;;4.40;99.90;;;;;;5014610;28;20042;-86
2023/01/27 04:44:25;;;;;;;12.40;8.30;;;4.40;99.90;;;;;;5013629;28;20516;-85
2023/01/27 04:46:53;;;;;;;9.15;6.80;;;4.40;99.90;;;;;;5014554;28;20034;-86
2023/01/27 04:49:19;;;;;;;10.35;7.00;;;4.40;99.90;;;;;;5013243;28;20111;-86
2023/01/27 04:51:46;;;;;;;12.68;7.85;;;4.40;99.90;;;;;;4996861;28;20062;-86
2023/01/27 04:54:14;;;;;;;9.55;6.80;;;4.50;99.90;;;;;;5014541;28;20104;-86
2023/01/27 04:56:52;;;;;;;11.25;6.78;;;4.40;99.90;;;;;;4996919;28;20088;-86
2023/01/27 04:59:19;;;;;;;10.65;6.55;;;4.40;99.90;;;;;;5012691;28;20037;-86
2023/01/27 05:01:49;;;;;;;10.02;6.07;;;4.40;99.90;;;;;;5011793;28;20050;-87
2023/01/27 05:04:16;;;;;;;9.95;6.07;;;4.40;99.90;;;;;;4996837;28;20040;-86
2023/01/27 05:06:41;;;;;;;9.52;6.72;;;4.40;99.90;;;;;;5011750;28;20049;-86
2023/01/27 05:09:10;;;;;;;11.32;6.75;;;4.40;99.90;;;;;;5012750;28;20030;-86
2023/01/27 05:11:47;;;;;;;9.68;6.90;;;4.40;99.90;;;;;;5027297;28;20030;-86
2023/01/27 05:14:16;;;;;;;9.80;6.63;;;4.40;99.90;;;;;;5012483;28;20069;-86
2023/01/27 05:16:44;;;;;;;9.05;6.15;;;4.40;99.90;;;;;;5014085;28;20042;-86
2023/01/27 05:19:11;;;;;;;7.18;5.35;;;4.40;99.90;;;;;;5012491;28;20486;-86
2023/01/27 05:21:42;;;;;;;7.97;6.05;;;4.40;99.90;;;;;;5012412;28;20053;-86
2023/01/27 05:24:10;;;;;;;8.52;5.80;;;4.50;99.90;;;;;;5013811;28;20037;-86
2023/01/27 05:26:38;;;;;;;7.93;5.47;;;4.40;99.90;;;;;;5012528;28;20034;-86
2023/01/27 05:29:23;;;;;;;8.05;5.22;;;4.50;99.90;;;;;;5013756;28;20062;-86
2023/01/27 05:31:58;;;;;;;6.63;4.80;;;4.50;99.90;;;;;;5013033;28;20037;-86
2023/01/27 05:34:26;;;;;;;6.85;4.90;;;4.50;99.90;;;;;;4996245;28;20038;-86
2023/01/27 05:36:56;;;;;;;8.18;5.22;;;4.50;99.90;;;;;;5012696;28;20084;-87
2023/01/27 05:39:22;;;;;;;6.85;4.55;;;4.50;99.90;;;;;;5012802;28;20041;-86
2023/01/27 05:41:49;;;;;;;6.55;4.40;;;4.50;99.90;;;;;;5023307;28;20097;-85
2023/01/27 05:44:20;;;;;;;7.07;4.55;;;4.50;99.90;;;;;;5022219;28;20129;-84
2023/01/27 05:47:08;;;;;;;6.47;4.68;;;4.50;99.90;;;;;;5040707;28;20044;-85
2023/01/27 05:49:34;;;;;;;6.57;4.20;;;4.50;99.90;;;;;;5022659;28;20478;-87
2023/01/27 05:52:00;;;;;;;8.80;5.22;;;4.50;99.90;;;;;;5000962;28;20040;-87
2023/01/27 05:54:26;;;;;;;9.00;4.93;;;4.50;99.90;;;;;;5018487;28;20083;-87
2023/01/27 05:57:14;;;;;;;6.53;4.55;;;4.50;99.90;;;;;;5016589;28;20038;-87
2023/01/27 05:59:42;;;;;;;6.05;4.30;;;4.50;99.90;;;;;;5018131;28;20048;-86
2023/01/27 06:02:14;;;;;;;6.45;4.53;;;4.50;99.90;;;;;;5035965;28;20061;-85
2023/01/27 06:05:11;;;;;;;6.90;4.63;;;4.50;99.90;;;;;;5036682;28;20048;-86
2023/01/27 06:07:37;;;;;;;7.00;4.50;;;4.50;99.90;;;;;;5019032;28;20116;-86
2023/01/27 06:10:05;;;;;;;8.10;4.95;;;4.50;99.90;;;;;;5019521;28;20126;-88
2023/01/27 06:12:34;;;;;;;7.72;5.05;;;4.50;99.90;;;;;;5002742;28;20038;-86
2023/01/27 06:15:09;;;;;;;5.68;4.00;;;4.50;99.90;;;;;;5019619;28;20033;-86
2023/01/27 06:17:38;;;;;;;8.50;4.55;;;4.40;99.90;;;;;;5018705;28;20109;-86
2023/01/27 06:20:04;;;;;;;7.90;5.13;;;4.40;99.90;;;;;;5018306;28;20041;-87
2023/01/27 06:22:40;;;;;;;7.30;4.65;;;4.40;99.90;;;;;;5018011;28;20485;-87
2023/01/27 06:25:10;;;;;;;7.63;5.38;;;4.40;99.90;;;;;;5018392;28;20033;-86
2023/01/27 06:27:48;;;;;;;6.68;5.00;;;4.40;99.90;;;;;;5037181;28;20042;-86
2023/01/27 06:30:19;;;;;;;6.30;4.40;;;4.40;99.90;;;;;;5036020;28;20021;-85
2023/01/27 06:32:51;;;;;;;7.43;5.07;;;4.40;99.90;;;;;;5018668;28;20440;-87
2023/01/27 06:35:20;;;;;;;6.35;4.18;;;4.40;99.90;;;;;;5002510;28;20045;-86
2023/01/27 06:37:50;;;;;;;7.35;4.50;;;4.40;99.90;;;;;;5036384;28;20116;-86
2023/01/27 06:40:17;;;;;;;7.40;4.75;;;4.40;99.90;;;;;;5018198;28;20042;-86
2023/01/27 06:42:47;;;;;;;6.32;4.05;;;4.30;99.90;;;;;;5035093;28;20061;-87
2023/01/27 06:45:13;;;;;;;6.20;4.47;;;4.20;99.90;;;;;;5018426;28;20036;-87
2023/01/27 06:47:44;;;;;;;6.35;4.15;;;4.20;99.90;;;;;;5018215;28;20037;-87
2023/01/27 06:50:13;;;;;;;6.65;4.20;;;4.20;99.90;;;;;;5018677;28;20124;-86
2023/01/27 06:52:43;;;;;;;6.68;4.00;;;4.10;99.90;;;;;;5001936;28;20481;-87
2023/01/27 06:55:11;;;;;;;5.55;3.80;;;4.20;99.90;;;;;;5001980;28;20042;-86
2023/01/27 06:57:39;;;;;;;5.43;3.75;;;4.20;99.90;;;;;;5035496;28;20466;-86
2023/01/27 07:00:07;;;;;;;5.25;3.47;;;4.20;99.90;;;;;;5001695;28;20049;-86
2023/01/27 07:02:53;;;;;;;5.63;3.65;;;4.20;99.90;;;;;;4985619;28;20160;-86
2023/01/27 07:05:24;;;;;;;5.32;3.90;;;4.20;99.90;;;;;;5017731;28;20033;-86
2023/01/27 07:07:59;;;;;;;4.78;3.63;;;4.20;99.90;;;;;;4985548;28;20099;-86
2023/01/27 07:10:31;;;;;;;5.28;3.47;;;4.10;99.90;;;;;;5035602;28;20030;-86
2023/01/27 07:16:02;;;;;;;7.05;4.13;;;3.80;99.90;;;;;;5018944;28;20034;-86
2023/01/27 07:18:30;;;;;;;7.03;4.13;;;3.70;99.90;;;;;;5016040;28;20140;-85
2023/01/27 07:21:06;;;;;;;8.23;4.00;;;3.60;99.90;;;;;;5017452;28;20037;-85
2023/01/27 07:23:39;;;;;;;5.93;4.10;;;3.60;99.90;;;;;;5017514;28;20045;-86
2023/01/27 07:26:18;;;;;;;;;;;3.50;99.90;;;;;;5017981;28;20096;-86
2023/01/27 07:28:46;;;;;;;5.70;3.30;;;3.40;99.90;;;;;;5001772;28;19909;-86
2023/01/27 07:31:45;;;;;;;6.10;3.70;;;3.40;99.90;;;;;;5000939;28;20041;-87
2023/01/27 07:34:16;;;;;;;4.88;3.50;;;3.40;99.90;;;;;;5033935;28;20026;-86
2023/01/27 07:37:01;;;;;;;6.35;3.78;;;3.40;99.90;;;;;;5016878;28;20405;-86
2023/01/27 07:39:37;;;;;;;4.82;3.20;;;3.40;99.90;;;;;;5002278;28;20512;-86
2023/01/27 07:42:04;;;;;;;5.10;3.38;;;3.40;99.90;;;;;;5017317;28;20041;-86
2023/01/27 07:44:59;;;;;;;5.28;3.42;;;3.50;99.90;;;;;;5016680;28;20445;-86
2023/01/27 07:47:38;;;;;;;7.38;3.80;;;3.50;99.90;;;;;;5017290;28;20026;-86
2023/01/27 07:50:24;;;;;;;5.43;3.53;;;3.50;99.90;;;;;;4987443;28;20033;-86
2023/01/27 07:52:51;;;;;;;4.40;3.40;;;3.60;99.90;;;;;;5014051;28;20041;-85
2023/01/27 07:55:30;;;;;;;5.55;3.45;;;3.70;99.90;;;;;;5002687;28;20108;-87
2023/01/27 07:58:14;;;;;;;5.05;3.50;;;3.70;99.90;;;;;;5017125;28;20056;-86
2023/01/27 08:00:51;;;;;;;5.40;3.53;;;3.80;99.90;;;;;;4986527;28;20054;-86
2023/01/27 08:03:31;;;;;;;5.20;3.60;;;3.80;99.90;;;;;;4994259;28;20042;-85
2023/01/27 08:06:07;;;;;;;5.03;3.42;;;3.90;99.90;;;;;;4977394;28;20553;-84
2023/01/27 08:08:41;;;;;;;5.28;3.50;;;3.90;99.90;;;;;;4977351;28;20475;-85
2023/01/27 08:11:18;;;;;;;5.72;3.60;;;3.90;99.90;;;;;;4974271;28;20035;-85
2023/01/27 08:13:51;;;;;;;4.80;3.38;;;4.00;99.90;;;;;;4976129;28;20051;-85
2023/01/27 08:16:22;;;;;;;5.70;4.10;;;4.00;99.90;;;;;;4990556;28;20097;-85
2023/01/27 08:18:56;;;;;;;5.97;3.83;;;4.00;99.90;;;;;;4976971;28;20038;-83
2023/01/27 08:21:31;;;;;;;6.30;4.05;;;4.10;99.90;;;;;;4974418;28;20046;-85
2023/01/27 08:24:02;;;;;;;4.45;3.30;;;4.00;99.90;;;;;;4974071;28;20049;-85
2023/01/27 08:26:38;;;;;;;4.78;3.47;;;4.10;99.90;;;;;;4990776;28;20042;-85
2023/01/27 08:29:17;;;;;;;5.05;3.47;;;4.10;99.90;;;;;;4973355;28;20049;-86
2023/01/27 08:32:17;;;;;;;5.50;3.40;;;4.10;99.90;;;;;;4985730;28;20037;-86
2023/01/27 08:34:50;;;;;;;5.47;3.00;;;4.10;99.90;;;;;;4997196;28;20541;-86
2023/01/27 08:37:20;;;;;;;4.25;3.10;;;4.10;99.90;;;;;;4975239;28;20146;-85
2023/01/27 08:40:02;;;;;;;4.70;3.22;;;4.20;99.90;;;;;;4993098;28;20138;-85
2023/01/27 08:42:34;;;;;;;5.63;3.35;;;4.20;99.90;;;;;;4973309;28;20039;-86
2023/01/27 08:45:00;;;;;;;4.15;3.20;;;4.20;99.90;;;;;;4973261;28;20092;-86
2023/01/27 08:47:28;;;;;;;7.03;3.22;;;4.20;99.90;;;;;;4990053;28;20073;-88
2023/01/27 08:49:57;;;;;;;4.65;3.40;;;4.10;99.90;;;;;;4972979;28;20169;-86
2023/01/27 08:52:29;;;;;;;4.47;3.17;;;4.20;99.90;;;;;;4972874;28;20604;-86
2023/01/27 08:55:05;;;;;;;3.90;3.05;;;4.10;99.90;;;;;;4976446;28;20501;-86
2023/01/27 08:57:36;;;;;;;5.03;3.20;;;4.20;99.90;;;;;;4992972;28;20474;-84
2023/01/27 09:00:03;;;;;;;4.47;2.67;;;4.10;99.90;;;;;;4972820;28;20039;-85
2023/01/27 09:02:30;;;;;;;5.68;3.08;;;4.20;99.90;;;;;;4993138;28;20501;-86
2023/01/27 09:05:00;;;;;;;4.45;2.80;;;4.10;99.90;;;;;;4995603;28;20065;-85
2023/01/27 09:07:26;;;;;;;3.75;2.58;;;4.20;99.90;;;;;;4995308;28;20596;-85
2023/01/27 09:09:53;;;;;;;4.47;2.75;;;4.20;99.90;;;;;;4995277;28;20037;-85
2023/01/27 09:12:22;;;;;;;5.10;3.20;;;4.20;99.90;;;;;;4995448;28;20542;-85
2023/01/27 09:14:56;;;;;;;7.20;3.35;;;4.20;99.90;;;;;;4994264;28;20042;-85
2023/01/27 09:17:24;;;;;;;5.65;3.63;;;4.20;99.90;;;;;;4995233;28;20078;-85
2023/01/27 09:19:52;;;;;;;7.30;3.58;;;4.20;99.90;;;;;;5012631;28;20058;-85
2023/01/27 09:22:19;;;;;;;5.40;3.47;;;4.20;99.90;;;;;;4995285;28;20049;-85
2023/01/27 09:24:53;;;;;;;5.32;3.58;;;4.20;99.90;;;;;;4994785;28;20529;-84
2023/01/27 09:27:25;;;;;;;7.07;3.60;;;4.20;99.90;;;;;;4994992;28;20034;-85
2023/01/27 09:29:55;;;;;;;5.47;3.40;;;4.20;99.90;;;;;;4994604;28;20037;-86
2023/01/27 09:32:21;;;;;;;5.78;3.72;;;4.20;99.90;;;;;;5011707;28;20486;-85
2023/01/27 09:34:48;;;;;;;4.45;3.42;;;4.20;99.90;;;;;;4995347;28;20133;-86
2023/01/27 09:37:30;;;;;;;4.97;3.35;;;4.20;99.90;;;;;;4994439;28;20045;-86
2023/01/27 09:40:58;;;;;;;5.07;3.47;;;4.10;99.90;;;;;;5000294;28;20052;-86
2023/01/27 09:43:55;;;;;;;5.38;3.30;;;4.20;99.90;;;;;;5007749;28;20092;-86
2023/01/27 09:47:01;;;;;;;3.70;2.65;;;4.20;99.90;;;;;;5013110;28;20034;-84
2023/01/27 09:49:53;;;;;;;7.10;3.45;;;4.30;99.90;;;;;;4990688;28;20037;-85
2023/01/27 09:52:31;;;;;;;7.45;3.65;;;4.30;99.90;;;;;;5031669;28;20506;-84
2023/01/27 09:55:33;;;;;;;5.95;3.72;;;4.30;99.90;;;;;;5033522;28;20092;-86
2023/01/27 10:01:36;;;;;;;5.95;4.28;;;4.30;99.90;;;;;;5050918;28;20060;-84
2023/01/27 10:04:27;;;;;;;5.90;2.95;;;4.30;99.90;;;;;;5052927;28;20102;-86
2023/01/27 10:07:57;;;;;;;5.80;3.45;;;4.40;99.90;;;;;;5036787;28;20163;-85
2023/01/27 10:10:44;;;;;;;4.63;3.03;;;4.40;99.90;;;;;;5032080;28;20110;-86
2023/01/27 10:13:49;;;;;;;4.38;2.95;;;4.40;99.90;;;;;;5031784;28;20033;-86
2023/01/27 10:16:50;;;;;;;5.25;3.60;;;4.40;99.90;;;;;;5031806;28;20049;-84
2023/01/27 10:19:44;;;;;;;5.93;3.10;;;4.50;99.90;;;;;;5032425;28;20117;-85
2023/01/27 10:22:50;;;;;;;4.90;3.00;;;4.50;99.90;;;;;;5027171;28;20061;-87
2023/01/27 10:25:56;;;;;;;5.80;3.70;;;4.50;99.90;;;;;;5031074;28;20037;-87
2023/01/27 10:29:24;;;;;;;4.90;3.20;;;4.50;99.90;;;;;;5034773;28;20041;-86
2023/01/27 10:32:48;;;;;;;6.43;3.38;;;4.50;99.90;;;;;;4961672;28;20618;-86
2023/01/27 10:35:35;;;;;;;6.38;4.10;;;4.50;99.90;;;;;;4948251;28;20046;-86
2023/01/27 10:38:40;;;;;;;5.75;3.72;;;4.60;99.90;;;;;;4958110;28;20043;-84
2023/01/27 10:41:51;;;;;;;5.53;4.15;;;4.60;99.90;;;;;;4997664;28;20045;-85
2023/01/27 10:45:13;;;;;;;;;;;;;;;;;;;;;
2023/01/27 10:48:02;;;;;;;5.60;3.88;;;4.60;99.90;;;;;;4998003;28;20042;-87
2023/01/27 10:51:18;;;;;;;;;;;;;;;;;;;;;
2023/01/27 10:54:27;;;;;;;6.25;4.20;;;4.70;99.90;;;;;;4960197;28;20559;-87
2023/01/27 10:57:20;;;;;;;6.18;3.80;;;4.60;99.90;;;;;;4978497;28;20043;-87
2023/01/27 11:00:05;;;;;;;5.47;3.95;;;4.70;99.90;;;;;;4999207;28;20183;-87
2023/01/27 11:03:12;;;;;;;6.30;4.93;;;4.70;99.90;;;;;;4989061;28;20058;-87
2023/01/27 11:06:07;;;;;;;5.53;4.13;;;4.70;99.90;;;;;;4994812;28;20073;-86
2023/01/27 11:08:46;;;;;;;5.65;3.88;;;4.70;99.90;;;;;;4977298;28;20048;-87
2023/01/27 11:12:04;;;;;;;;;;;;;;;;;;;;;
2023/01/27 11:14:58;;;;;;;;;;;;;;;;;;;;;
2023/01/27 11:21:21;;;;;;;6.22;3.50;;;4.80;99.90;;;;;;4989552;28;20055;-86
2023/01/27 11:23:55;;;;;;;5.82;4.03;;;4.90;99.90;;;;;;4994936;28;20073;-87
2023/01/27 11:26:28;;;;;;;5.70;3.97;;;5.00;99.90;;;;;;4978812;28;20372;-86
2023/01/27 11:29:54;;;;;;;6.63;3.53;;;5.10;99.90;;;;;;4979274;28;20031;-86
2023/01/27 11:33:00;;;;;;;5.60;3.75;;;5.30;99.90;;;;;;4920286;29;20032;-86
2023/01/27 11:35:33;;;;;;;5.05;3.72;;;5.40;99.90;;;;;;4935702;29;20031;-86
2023/01/27 11:38:23;;;;;;;6.25;3.90;;;5.50;99.90;;;;;;4918349;29;20032;-86
2023/01/27 11:41:47;;;;;;;5.15;3.75;;;5.50;99.90;;;;;;4935499;29;20043;-86
2023/01/27 11:44:37;;;;;;;4.90;3.38;;;5.40;99.90;;;;;;4933587;29;20624;-86
2023/01/27 11:47:18;;;;;;;4.72;3.22;;;5.40;99.90;;;;;;4919392;29;20131;-87
2023/01/27 11:50:26;;;;;;;;;;;;;;;;;;;;;
2023/01/27 11:53:26;;;;;;;5.90;3.70;;;5.40;99.90;;;;;;4933144;29;20410;-87
2023/01/27 11:56:23;;;;;;;4.47;3.33;;;5.40;99.90;;;;;;4934511;29;20047;-86
2023/01/27 11:59:46;;;;;;;4.95;3.80;;;5.40;99.90;;;;;;4918841;29;20404;-87
2023/01/27 12:02:54;;;;;;;;;;;;;;;;;;;;;
2023/01/27 12:05:40;;;;;;;5.30;3.17;;;5.50;99.90;;;;;;4946590;28;20037;-86
2023/01/27 12:08:39;;;;;;;5.55;3.15;;;5.50;99.90;;;;;;4997435;28;20038;-88
2023/01/27 12:11:47;;;;;;;3.75;2.65;;;5.60;99.90;;;;;;4996942;28;20120;-87
2023/01/27 12:14:22;;;;;;;4.93;2.95;;;5.60;99.90;;;;;;5014300;28;20065;-85
2023/01/27 12:16:52;;;;;;;5.47;3.60;;;5.70;99.90;;;;;;4997003;28;20048;-87
2023/01/27 12:19:58;;;;;;;4.60;2.95;;;5.70;99.90;;;;;;5014267;28;20038;-87
2023/01/27 12:22:50;;;;;;;5.07;2.58;;;5.70;99.90;;;;;;4997615;28;20092;-87
2023/01/27 12:25:26;;;;;;;4.38;3.20;;;5.80;99.90;;;;;;4989261;28;20034;-87
2023/01/27 12:28:01;;;;;;;5.05;3.72;;;5.80;99.90;;;;;;4997141;28;20091;-88
2023/01/27 12:30:38;;;;;;;4.75;3.10;;;5.80;99.90;;;;;;4996756;28;20030;-87
2023/01/27 12:33:32;;;;;;;4.65;3.53;;;5.70;99.90;;;;;;4996705;28;20038;-87
2023/01/27 12:36:26;;;;;;;6.03;3.63;;;5.70;99.90;;;;;;4981957;28;20046;-87
2023/01/27 12:39:00;;;;;;;4.30;3.10;;;5.70;99.90;;;;;;4996743;28;20443;-86
2023/01/27 12:42:00;;;;;;;6.53;3.20;;;5.80;99.90;;;;;;4996443;28;20441;-86
2023/01/27 12:45:16;;;;;;;4.63;3.35;;;6.00;99.90;;;;;;4980701;28;20135;-87
2023/01/27 12:48:06;;;;;;;4.75;3.13;;;6.20;99.90;;;;;;4985690;28;20087;-86
2023/01/27 12:51:05;;;;;;;4.20;2.60;;;6.30;99.90;;;;;;5012426;28;20038;-87
2023/01/27 12:54:11;;;;;;;4.53;2.95;;;6.30;99.90;;;;;;4995484;28;20061;-87
2023/01/27 12:56:41;;;;;;;4.20;2.90;;;6.20;99.90;;;;;;5013172;28;20034;-87
2023/01/27 12:59:41;;;;;;;4.95;3.70;;;6.10;99.90;;;;;;4995443;28;20034;-86
2023/01/27 13:02:46;;;;;;;3.80;2.78;;;6.10;99.90;;;;;;4960488;28;20061;-87
2023/01/27 13:05:54;;;;;;;3.78;2.63;;;5.90;99.90;;;;;;4988117;28;20042;-86
2023/01/27 13:08:34;;;;;;;6.00;3.72;;;6.00;99.90;;;;;;4910334;29;20069;-86
2023/01/27 13:14:29;;;;;;;5.45;3.45;;;5.80;99.90;;;;;;4994585;28;20049;-86
2023/01/27 13:17:36;;;;;;;5.07;3.30;;;5.80;99.90;;;;;;4975516;28;20042;-86
2023/01/27 13:20:39;;;;;;;4.47;3.40;;;5.70;99.90;;;;;;4979421;28;20145;-87
2023/01/27 13:23:35;;;;;;;5.40;3.78;;;5.70;99.90;;;;;;4987186;28;20035;-86
2023/01/27 13:26:37;;;;;;;4.40;3.40;;;5.60;99.90;;;;;;4983273;28;20622;-86
2023/01/27 13:33:30;;;;;;;5.77;3.40;;;5.60;99.90;;;;;;4998661;28;20179;-86
2023/01/27 13:36:05;;;;;;;5.55;4.07;;;5.60;99.90;;;;;;4994087;28;20857;-86
2023/01/27 13:39:14;;;;;;;5.45;3.95;;;5.60;99.90;;;;;;4989601;28;20037;-86
2023/01/27 13:42:17;;;;;;;4.30;3.40;;;5.50;99.90;;;;;;4992604;28;20053;-88
2023/01/27 13:45:05;;;;;;;6.45;3.20;;;5.50;99.90;;;;;;4945814;29;20528;-87
2023/01/27 13:48:16;;;;;;;4.78;3.50;;;5.50;99.90;;;;;;4945347;28;20101;-88
2023/01/27 13:51:12;;;;;;;5.70;3.75;;;5.50;99.90;;;;;;4899276;28;20040;-87
2023/01/27 13:53:46;;;;;;;5.03;3.50;;;5.40;99.90;;;;;;4951722;28;20039;-87
2023/01/27 13:56:29;;;;;;;;;;;5.50;99.90;;;;;;4970143;28;20129;-88
2023/01/27 13:59:27;;;;;;;4.93;3.63;;;5.40;99.90;;;;;;4967107;28;19906;-87
2023/01/27 14:02:28;;;;;;;4.93;3.53;;;5.40;99.90;;;;;;4975329;28;20046;-87
2023/01/27 14:05:31;;;;;;;6.35;4.18;;;5.40;99.90;;;;;;4995493;28;20042;-87
2023/01/27 14:08:39;;;;;;;6.35;4.22;;;5.40;99.90;;;;;;4993731;28;20038;-86
2023/01/27 14:11:29;;;;;;;6.13;4.15;;;5.30;99.90;;;;;;4974581;28;20101;-86
2023/01/27 14:14:05;;;;;;;7.60;5.15;;;5.30;99.90;;;;;;4975265;28;20129;-86
2023/01/27 14:17:29;;;;;;;8.63;4.78;;;5.20;99.90;;;;;;4988457;28;20110;-86
2023/01/27 14:20:23;;;;;;;6.80;5.32;;;5.20;99.90;;;;;;4928707;29;20136;-86
2023/01/27 14:23:12;;;;;;;6.25;4.90;;;5.20;99.90;;;;;;4987575;28;20035;-86
2023/01/27 14:26:30;;;;;;;;;;;;;;;;;;;;;
2023/01/27 14:29:37;;;;;;;7.75;5.25;;;5.10;99.90;;;;;;4985084;28;20038;-85
2023/01/27 14:33:30;;;;;;;8.77;5.50;;;5.00;99.90;;;;;;4987178;28;20043;-86
2023/01/27 14:36:17;;;;;;;8.30;5.72;;;5.00;99.90;;;;;;4964526;28;20035;-85
2023/01/27 14:38:58;;;;;;;8.65;5.68;;;5.00;99.90;;;;;;4995382;28;20042;-85
2023/01/27 14:41:43;;;;;;;7.07;5.32;;;5.00;99.90;;;;;;4987133;28;20403;-85
2023/01/27 14:44:53;;;;;;;6.38;4.82;;;5.00;99.90;;;;;;4973574;28;20043;-85
2023/01/27 14:48:18;;;;;;;6.70;5.07;;;5.00;99.90;;;;;;4933507;29;20054;-85
2023/01/27 14:51:13;;;;;;;6.13;4.93;;;5.00;99.90;;;;;;4925882;29;20115;-85
2023/01/27 14:54:32;;;;;;;7.22;4.80;;;5.00;99.90;;;;;;4918835;29;20044;-85
2023/01/27 14:57:45;;;;;;;6.22;4.40;;;5.00;99.90;;;;;;4860077;29;20049;-85